Time;durP1;ratioP1;P1;durP2;ratioP2;P2;SDS_P1;SDS_P2;PMS_P1;PMS_P2;Temp;Humidity;BMP_temperature;BMP_pressure;BME280_temperature;BME280_humidity;BME280_pressure;Samples;Min_cycle;Max_cycle;Signal;HPM_P1;HPM_P2
2022/07/24 00:00:38;;;;;;;;;;;;;;;26.68;55.81;101415.53;5006511;28;19914;-81
2022/07/24 00:03:03;;;;;;;;;;;;;;;26.66;55.66;101412.84;4996939;28;19920;-81
2022/07/24 00:05:29;;;;;;;;;;;;;;;26.70;55.67;101403.03;5004549;28;19918;-81
2022/07/24 00:07:54;;;;;;;;;;;;;;;26.66;55.79;101406.63;5010603;28;20072;-80
2022/07/24 00:10:19;;;;;;;;;;;;;;;26.68;56.00;101408.38;5014601;28;20004;-81
2022/07/24 00:12:45;;;;;;;;;;;;;;;26.71;55.96;101402.13;5014455;28;19921;-81
2022/07/24 00:15:11;;;;;;;;;;;;;;;26.68;55.81;101403.03;5022012;28;20375;-81
2022/07/24 00:17:36;;;;;;;;;;;;;;;26.70;55.95;101398.56;5007096;28;19917;-80
2022/07/24 00:20:02;;;;;;;;;;;;;;;26.67;55.70;101392.31;4993785;28;19913;-80
2022/07/24 00:22:28;;;;;;;;;;;;;;;26.65;55.68;101396.78;4983678;28;20001;-81
2022/07/24 00:24:53;;;;;;;;;;;;;;;26.65;55.97;101408.41;4983526;28;20012;-81
2022/07/24 00:27:18;;;;;;;;;;;;;;;26.66;55.97;101399.47;5014366;28;20287;-80
2022/07/24 00:29:44;;;;;;;;;;;;;;;26.69;55.70;101401.22;5014279;28;20371;-80
2022/07/24 00:32:09;;;;;;;;;;;;;;;26.69;55.82;101391.44;5014013;28;20457;-80
2022/07/24 00:34:35;;;;;;;;;;;;;;;26.66;55.97;101390.53;4986654;28;20315;-80
2022/07/24 00:37:00;;;;;;;;;;;;;;;26.61;55.87;101387.88;5014209;28;19913;-81
2022/07/24 00:39:26;;;;;;;;;;;;;;;26.54;55.76;101381.63;4996090;28;20387;-80
2022/07/24 00:41:53;;;;;;;;;;;;;;;26.56;55.96;101379.84;5000712;28;20348;-81
2022/07/24 00:44:19;;;;;;;;;;;;;;;26.56;55.97;101387.91;4987332;28;19914;-80
2022/07/24 00:46:45;;;;;;;;;;;;;;;26.58;55.84;101378.03;5007454;28;19918;-81
2022/07/24 00:49:11;;;;;;;;;;;;;;;26.57;55.75;101378.94;4987520;28;19913;-80
2022/07/24 00:51:37;;;;;;;;;;;;;;;26.57;55.49;101373.59;5010860;28;20382;-81
2022/07/24 00:54:03;;;;;;;;;;;;;;;26.57;55.87;101376.25;4973132;28;20001;-81
2022/07/24 00:56:29;;;;;;;;;;;;;;;26.59;55.64;101363.75;5011879;28;19920;-80
2022/07/24 00:59:02;;;;;;;;;;;;;;;26.60;55.49;101361.97;5002770;28;20008;-81
2022/07/24 01:01:27;;;;;;;;;;;;;;;26.58;55.72;101361.97;4983087;28;19914;-80
2022/07/24 01:03:53;;;;;;;;;;;;;;;26.59;55.59;101358.41;5001667;28;20276;-80
2022/07/24 01:06:19;;;;;;;;;;;;;;;26.55;55.74;101353.03;4986065;28;19918;-79
2022/07/24 01:08:45;;;;;;;;;;;;;;;26.57;55.81;101359.31;4988788;28;19914;-80
2022/07/24 01:11:10;;;;;;;;;;;;;;;26.58;55.51;101350.34;4976762;28;20394;-80
2022/07/24 01:13:36;;;;;;;;;;;;;;;26.58;55.80;101350.34;4976391;28;20034;-80
2022/07/24 01:16:02;;;;;;;;;;;;;;;26.59;55.69;101349.47;4976629;28;19945;-80
2022/07/24 01:18:27;;;;;;;;;;;;;;;26.59;55.92;101345.00;5005397;28;20262;-81
2022/07/24 01:20:56;;;;;;;;;;;;;;;26.58;55.55;101342.31;4974864;28;19917;-82
2022/07/24 01:23:23;;;;;;;;;;;;;;;26.55;55.64;101337.84;5015285;28;20016;-81
2022/07/24 01:25:48;;;;;;;;;;;;;;;26.55;55.68;101332.47;5009087;28;19924;-80
2022/07/24 01:28:14;;;;;;;;;;;;;;;26.55;55.73;101335.16;5008883;28;19914;-80
2022/07/24 01:30:39;;;;;;;;;;;;;;;26.56;55.70;101337.00;5013256;28;19913;-82
2022/07/24 01:33:05;;;;;;;;;;;;;;;26.51;55.79;101328.03;5016274;28;19917;-80
2022/07/24 01:35:30;;;;;;;;;;;;;;;26.50;55.68;101325.34;5014928;28;20377;-80
2022/07/24 01:37:56;;;;;;;;;;;;;;;26.50;55.81;101323.59;5007987;28;19918;-80
2022/07/24 01:40:21;;;;;;;;;;;;;;;26.49;55.58;101319.09;5007719;28;19964;-80
2022/07/24 01:42:47;;;;;;;;;;;;;;;26.50;55.66;101312.88;5012575;28;19967;-81
2022/07/24 01:45:13;;;;;;;;;;;;;;;26.53;55.63;101311.97;5015230;28;19968;-80
2022/07/24 01:47:39;;;;;;;;;;;;;;;26.54;55.71;101303.00;5013129;28;19921;-80
2022/07/24 01:50:05;;;;;;;;;;;;;;;26.53;55.94;101303.94;5024438;28;19913;-81
2022/07/24 01:52:30;;;;;;;;;;;;;;;26.53;55.69;101293.22;5005945;28;19913;-81
2022/07/24 01:54:56;;;;;;;;;;;;;;;26.52;55.71;101300.38;5004722;28;19956;-81
2022/07/24 01:57:21;;;;;;;;;;;;;;;26.49;56.12;101292.31;5023270;28;19920;-81
2022/07/24 01:59:46;;;;;;;;;;;;;;;26.44;55.91;101302.16;5028938;28;19921;-81
2022/07/24 02:02:12;;;;;;;;;;;;;;;26.46;55.98;101302.13;5012460;28;19913;-81
2022/07/24 02:04:37;;;;;;;;;;;;;;;26.46;56.01;101305.75;5027323;28;19976;-81
2022/07/24 02:07:03;;;;;;;;;;;;;;;26.42;56.19;101298.59;5012499;28;19984;-80
2022/07/24 02:09:28;;;;;;;;;;;;;;;26.43;56.01;101299.50;5024279;28;20523;-81
2022/07/24 02:11:54;;;;;;;;;;;;;;;26.43;56.25;101297.69;5031108;28;20307;-81
2022/07/24 02:14:19;;;;;;;;;;;;;;;26.45;56.18;101298.59;5012298;28;19914;-81
2022/07/24 02:16:45;;;;;;;;;;;;;;;26.43;56.20;101299.50;5008788;28;19921;-81
2022/07/24 02:19:10;;;;;;;;;;;;;;;26.41;56.28;101295.00;5012340;28;19921;-82
2022/07/24 02:21:36;;;;;;;;;;;;;;;26.44;56.38;101299.50;5027554;28;20032;-81
2022/07/24 02:24:01;;;;;;;;;;;;;;;26.45;56.47;101297.69;5017567;28;19920;-81
2022/07/24 02:26:27;;;;;;;;;;;;;;;26.43;56.19;101299.50;5021238;28;19922;-81
2022/07/24 02:28:52;;;;;;;;;;;;;;;26.44;56.37;101304.84;5011943;28;19975;-81
2022/07/24 02:31:18;;;;;;;;;;;;;;;26.41;56.61;101302.16;5012510;28;20024;-81
2022/07/24 02:33:43;;;;;;;;;;;;;;;26.40;56.48;101303.97;5011161;28;20398;-81
2022/07/24 02:36:09;;;;;;;;;;;;;;;26.40;56.56;101300.41;5005782;28;19935;-80
2022/07/24 02:38:34;;;;;;;;;;;;;;;26.35;56.80;101303.09;5007801;28;19913;-81
2022/07/24 02:40:59;;;;;;;;;;;;;;;26.36;56.51;101299.50;5017894;28;19913;-81
2022/07/24 02:43:25;;;;;;;;;;;;;;;26.37;56.55;101301.31;5000418;28;19922;-81
2022/07/24 02:45:50;;;;;;;;;;;;;;;26.38;56.64;101302.19;5011245;28;19972;-81
2022/07/24 02:48:16;;;;;;;;;;;;;;;26.37;56.70;101303.97;5012313;28;19917;-81
2022/07/24 02:50:41;;;;;;;;;;;;;;;26.38;56.54;101300.38;4998098;28;20441;-81
2022/07/24 02:53:07;;;;;;;;;;;;;;;26.40;56.51;101300.41;5005548;28;19917;-81
2022/07/24 02:55:32;;;;;;;;;;;;;;;26.33;56.69;101298.59;5012121;28;19914;-81
2022/07/24 02:57:57;;;;;;;;;;;;;;;26.36;56.51;101304.84;4999848;28;19997;-80
2022/07/24 03:00:23;;;;;;;;;;;;;;;26.33;56.50;101302.22;4972015;28;20032;-80
2022/07/24 03:02:49;;;;;;;;;;;;;;;26.34;56.50;101300.41;5007668;28;20365;-81
2022/07/24 03:05:14;;;;;;;;;;;;;;;26.37;56.37;101301.31;5003431;28;20012;-81
2022/07/24 03:07:40;;;;;;;;;;;;;;;26.37;56.56;101297.72;5009960;28;19913;-81
2022/07/24 03:10:06;;;;;;;;;;;;;;;26.33;56.50;101293.25;5018030;28;20012;-81
2022/07/24 03:12:32;;;;;;;;;;;;;;;26.34;56.60;101295.06;5024314;28;19913;-81
2022/07/24 03:14:57;;;;;;;;;;;;;;;26.35;56.64;101297.75;5015475;28;20008;-81
2022/07/24 03:17:22;;;;;;;;;;;;;;;26.33;56.33;101299.53;5015518;28;19914;-81
2022/07/24 03:19:48;;;;;;;;;;;;;;;26.32;56.32;101299.53;5015364;28;19920;-81
2022/07/24 03:22:13;;;;;;;;;;;;;;;26.29;56.44;101299.50;5015275;28;20383;-81
2022/07/24 03:24:40;;;;;;;;;;;;;;;26.32;56.60;101302.19;4982129;28;20373;-81
2022/07/24 03:27:05;;;;;;;;;;;;;;;26.30;56.42;101302.19;5010028;28;20244;-80
2022/07/24 03:29:31;;;;;;;;;;;;;;;26.32;56.50;101299.53;5007241;28;20412;-81
2022/07/24 03:31:56;;;;;;;;;;;;;;;26.32;56.25;101292.38;4997565;28;19917;-81
2022/07/24 03:34:21;;;;;;;;;;;;;;;26.32;56.18;101295.06;5015404;28;19921;-81
2022/07/24 03:36:47;;;;;;;;;;;;;;;26.31;56.14;101289.69;5015060;28;19983;-81
2022/07/24 03:39:12;;;;;;;;;;;;;;;26.31;56.28;101292.38;5015363;28;20418;-81
2022/07/24 03:41:38;;;;;;;;;;;;;;;26.28;56.35;101297.75;5030669;28;20409;-80
2022/07/24 03:44:03;;;;;;;;;;;;;;;26.28;56.08;101290.59;5014941;28;19992;-81
2022/07/24 03:46:29;;;;;;;;;;;;;;;26.29;56.31;101297.75;5030391;28;20353;-80
2022/07/24 03:48:55;;;;;;;;;;;;;;;26.32;56.15;101296.84;5000448;28;20363;-81
2022/07/24 03:51:20;;;;;;;;;;;;;;;26.30;56.08;101288.81;5005369;28;19918;-81
2022/07/24 03:53:46;;;;;;;;;;;;;;;26.29;56.05;101291.47;5009482;28;19940;-81
2022/07/24 03:56:11;;;;;;;;;;;;;;;26.29;56.06;101294.16;5014572;28;19963;-81
2022/07/24 03:58:37;;;;;;;;;;;;;;;26.29;56.25;101295.06;5014948;28;20275;-81
2022/07/24 04:01:02;;;;;;;;;;;;;;;26.28;56.24;101292.38;5013918;28;20004;-81
2022/07/24 04:03:27;;;;;;;;;;;;;;;26.27;55.95;101304.91;5010921;28;19913;-80
2022/07/24 04:05:53;;;;;;;;;;;;;;;26.25;56.30;101308.47;4994502;28;20363;-81
2022/07/24 04:08:18;;;;;;;;;;;;;;;26.27;56.53;101312.00;5013847;28;20026;-81
2022/07/24 04:10:44;;;;;;;;;;;;;;;26.30;56.48;101304.00;5018255;28;19953;-81
2022/07/24 04:13:09;;;;;;;;;;;;;;;26.28;56.21;101312.00;5007809;28;19951;-81
2022/07/24 04:15:35;;;;;;;;;;;;;;;26.23;56.48;101311.16;5017820;28;19917;-81
2022/07/24 04:18:00;;;;;;;;;;;;;;;26.23;56.64;101315.63;4994188;28;19913;-81
2022/07/24 04:20:27;;;;;;;;;;;;;;;26.19;56.47;101312.03;5014752;28;19923;-81
2022/07/24 04:22:52;;;;;;;;;;;;;;;26.18;56.95;101320.97;5013224;28;19980;-81
2022/07/24 04:25:19;;;;;;;;;;;;;;;26.16;56.70;101312.03;5014371;28;19917;-81
2022/07/24 04:27:45;;;;;;;;;;;;;;;26.18;56.85;101313.84;5014871;28;19920;-81
2022/07/24 04:30:25;;;;;;;;;;;;;;;26.20;56.81;101308.47;5030008;28;19949;-81
2022/07/24 04:32:51;;;;;;;;;;;;;;;26.22;56.76;101309.34;5014311;28;20415;-81
2022/07/24 04:35:16;;;;;;;;;;;;;;;26.20;56.67;101319.16;5013864;28;19922;-81
2022/07/24 04:37:42;;;;;;;;;;;;;;;26.18;56.75;101313.84;5016074;28;19967;-81
2022/07/24 04:40:07;;;;;;;;;;;;;;;26.19;56.63;101309.38;5016189;28;20470;-81
2022/07/24 04:42:33;;;;;;;;;;;;;;;26.14;56.83;101314.75;5010978;28;20353;-81
2022/07/24 04:44:58;;;;;;;;;;;;;;;26.16;56.96;101318.31;4996297;28;19920;-81
2022/07/24 04:47:24;;;;;;;;;;;;;;;26.16;56.75;101310.28;5013848;28;20292;-81
2022/07/24 04:49:49;;;;;;;;;;;;;;;26.15;57.07;101320.97;5013807;28;20565;-81
2022/07/24 04:52:14;;;;;;;;;;;;;;;26.20;56.79;101317.41;5006909;28;20620;-81
2022/07/24 04:54:40;;;;;;;;;;;;;;;26.23;57.03;101315.63;5013837;28;19913;-81
2022/07/24 04:57:05;;;;;;;;;;;;;;;26.23;56.99;101320.97;5013763;28;19919;-81
2022/07/24 04:59:31;;;;;;;;;;;;;;;26.23;56.86;101320.97;5000292;28;19957;-80
2022/07/24 05:01:56;;;;;;;;;;;;;;;26.23;57.14;101323.66;5013631;28;20412;-81
2022/07/24 05:04:21;;;;;;;;;;;;;;;26.22;56.84;101324.53;4995533;28;19913;-80
2022/07/24 05:06:47;;;;;;;;;;;;;;;26.23;57.12;101332.56;5013322;28;19921;-81
2022/07/24 05:09:13;;;;;;;;;;;;;;;26.20;57.06;101333.47;5006428;28;19914;-81
2022/07/24 05:11:38;;;;;;;;;;;;;;;26.20;57.45;101330.78;5017219;28;19924;-81
2022/07/24 05:14:05;;;;;;;;;;;;;;;26.22;57.21;101327.22;5016815;28;19913;-83
2022/07/24 05:16:30;;;;;;;;;;;;;;;26.22;57.18;101328.09;5021627;28;19918;-83
2022/07/24 05:18:56;;;;;;;;;;;;;;;26.20;57.68;101333.47;5017277;28;19921;-83
2022/07/24 05:21:21;;;;;;;;;;;;;;;26.20;57.37;101320.09;5012813;28;20384;-83
2022/07/24 05:23:46;;;;;;;;;;;;;;;26.20;57.52;101325.44;5011722;28;19924;-83
2022/07/24 05:26:12;;;;;;;;;;;;;;;26.20;57.60;101322.75;5006406;28;19921;-83
2022/07/24 05:28:37;;;;;;;;;;;;;;;26.20;57.46;101314.72;5002976;28;19917;-83
2022/07/24 05:31:03;;;;;;;;;;;;;;;26.22;57.64;101313.81;5011952;28;20322;-83
2022/07/24 05:33:29;;;;;;;;;;;;;;;26.20;57.96;101308.47;4999344;28;19914;-81
2022/07/24 05:35:54;;;;;;;;;;;;;;;26.20;58.36;101312.06;5015407;28;19920;-83
2022/07/24 05:38:20;;;;;;;;;;;;;;;26.21;58.15;101312.94;5015867;28;19920;-81
2022/07/24 05:40:45;;;;;;;;;;;;;;;26.24;58.06;101317.38;5018555;28;19914;-88
2022/07/24 05:43:11;;;;;;;;;;;;;;;26.23;57.80;101316.50;5017958;28;19913;-85
2022/07/24 05:45:36;;;;;;;;;;;;;;;26.23;58.07;101313.81;5012737;28;19929;-83
2022/07/24 05:48:02;;;;;;;;;;;;;;;26.23;58.13;101308.47;5012820;28;19988;-85
2022/07/24 05:50:27;;;;;;;;;;;;;;;26.23;57.93;101308.47;5012186;28;19913;-85
2022/07/24 05:52:53;;;;;;;;;;;;;;;26.25;57.62;101306.69;5009533;28;19918;-87
2022/07/24 05:55:18;;;;;;;;;;;;;;;26.23;57.86;101305.78;5006344;28;20315;-85
2022/07/24 05:57:47;;;;;;;;;;;;;;;26.22;57.99;101300.44;5011399;28;19917;-85
2022/07/24 06:00:18;;;;;;;;;;;;;;;26.18;57.70;101303.13;4996937;28;19914;-90
2022/07/24 06:02:45;;;;;;;;;;;;;;;26.22;57.30;101300.44;4981809;28;20489;-92
2022/07/24 06:05:11;;;;;;;;;;;;;;;26.23;57.46;101299.56;4979227;28;20005;-87
2022/07/24 06:07:36;;;;;;;;;;;;;;;26.22;57.94;101309.34;5016011;28;19964;-86
2022/07/24 06:10:03;;;;;;;;;;;;;;;26.19;57.83;101307.56;4992398;28;19918;-87
2022/07/24 06:12:29;;;;;;;;;;;;;;;26.20;57.95;101303.09;5000872;28;19948;-87
2022/07/24 06:14:54;;;;;;;;;;;;;;;26.19;57.43;101294.19;5010808;28;20331;-88
2022/07/24 06:17:20;;;;;;;;;;;;;;;26.19;57.84;101301.34;4994351;28;19968;-86
2022/07/24 06:19:45;;;;;;;;;;;;;;;26.20;57.65;101304.03;5012176;28;19914;-88
2022/07/24 06:22:10;;;;;;;;;;;;;;;26.21;57.56;101296.88;5012080;28;20434;-88
2022/07/24 06:24:36;;;;;;;;;;;;;;;26.19;57.47;101296.88;4976025;28;20343;-88
2022/07/24 06:27:01;;;;;;;;;;;;;;;26.21;57.64;101299.53;4980219;28;19917;-89
2022/07/24 06:29:27;;;;;;;;;;;;;;;26.20;57.41;101295.06;5003060;28;19921;-90
2022/07/24 06:31:52;;;;;;;;;;;;;;;26.18;57.65;101299.53;4995447;28;19917;-87
2022/07/24 06:34:20;;;;;;;;;;;;;;;26.23;57.53;101296.88;4979511;28;20330;-88
2022/07/24 06:36:45;;;;;;;;;;;;;;;26.21;57.77;101291.53;4996934;28;20648;-89
2022/07/24 06:39:11;;;;;;;;;;;;;;;26.19;58.17;101299.53;4989439;28;19996;-88
2022/07/24 06:41:36;;;;;;;;;;;;;;;26.22;57.52;101298.63;4983281;28;19928;-87
2022/07/24 06:44:02;;;;;;;;;;;;;;;26.22;57.74;101289.72;4981984;28;19921;-85
2022/07/24 06:46:27;;;;;;;;;;;;;;;26.24;57.71;101295.97;5017986;28;19921;-85
2022/07/24 06:48:52;;;;;;;;;;;;;;;26.25;57.82;101295.97;4996045;28;19924;-84
2022/07/24 06:51:18;;;;;;;;;;;;;;;26.25;57.35;101287.06;5000304;28;19918;-84
2022/07/24 06:53:46;;;;;;;;;;;;;;;26.20;57.60;101293.31;4974132;28;20299;-84
2022/07/24 06:56:12;;;;;;;;;;;;;;;26.20;57.44;101295.06;4996991;28;19913;-85
2022/07/24 06:58:37;;;;;;;;;;;;;;;26.25;57.72;101285.25;4992096;28;19914;-86
2022/07/24 07:01:02;;;;;;;;;;;;;;;26.23;57.34;101279.03;5009256;28;19914;-87
2022/07/24 07:03:28;;;;;;;;;;;;;;;26.24;58.07;101272.75;4997769;28;19928;-86
2022/07/24 07:05:53;;;;;;;;;;;;;;;26.27;57.88;101283.47;4962583;28;19929;-87
2022/07/24 07:08:19;;;;;;;;;;;;;;;26.24;57.77;101275.44;4994918;28;19940;-86
2022/07/24 07:10:44;;;;;;;;;;;;;;;26.24;57.92;101275.44;5012722;28;20366;-86
2022/07/24 07:13:10;;;;;;;;;;;;;;;26.25;58.05;101274.56;5006944;28;19975;-84
2022/07/24 07:15:35;;;;;;;;;;;;;;;26.26;58.09;101280.78;5002125;28;19913;-85
2022/07/24 07:18:01;;;;;;;;;;;;;;;26.20;58.33;101279.94;4999140;28;20422;-87
2022/07/24 07:20:26;;;;;;;;;;;;;;;26.31;57.93;101279.91;4996721;28;19920;-85
2022/07/24 07:22:51;;;;;;;;;;;;;;;26.35;58.00;101279.00;5018139;28;20005;-86
2022/07/24 07:25:17;;;;;;;;;;;;;;;26.37;58.12;101276.28;4992703;28;20373;-86
2022/07/24 07:27:44;;;;;;;;;;;;;;;26.37;58.37;101268.25;4994833;28;19925;-85
2022/07/24 07:30:13;;;;;;;;;;;;;;;26.32;58.10;101270.94;5000916;28;19951;-83
2022/07/24 07:32:38;;;;;;;;;;;;;;;26.31;58.19;101271.84;4988487;28;19927;-86
2022/07/24 07:35:04;;;;;;;;;;;;;;;26.37;58.03;101276.28;4976784;28;19921;-87
2022/07/24 07:37:42;;;;;;;;;;;;;;;26.35;57.92;101276.31;5000394;28;19914;-86
2022/07/24 07:40:08;;;;;;;;;;;;;;;26.38;58.46;101273.59;4996819;28;19922;-86
2022/07/24 07:42:33;;;;;;;;;;;;;;;26.40;58.12;101276.28;4997179;28;19918;-85
2022/07/24 07:44:59;;;;;;;;;;;;;;;26.40;58.07;101270.94;4998924;28;19940;-85
2022/07/24 07:47:24;;;;;;;;;;;;;;;26.37;58.63;101273.59;5007563;28;20298;-85
2022/07/24 07:49:49;;;;;;;;;;;;;;;26.42;58.34;101274.50;5001193;28;19925;-87
2022/07/24 07:52:15;;;;;;;;;;;;;;;26.38;58.41;101268.25;4993873;28;19921;-86
2022/07/24 07:54:41;;;;;;;;;;;;;;;26.43;58.87;101270.91;5014920;28;19913;-86
2022/07/24 07:57:06;;;;;;;;;;;;;;;26.44;58.67;101274.47;4980967;28;19913;-86
2022/07/24 07:59:32;;;;;;;;;;;;;;;26.47;58.82;101264.66;4998625;28;19956;-85
2022/07/24 08:01:57;;;;;;;;;;;;;;;26.46;58.77;101270.00;5000507;28;20075;-85
2022/07/24 08:04:22;;;;;;;;;;;;;;;26.46;58.76;101270.91;5007963;28;20008;-85
2022/07/24 08:06:48;;;;;;;;;;;;;;;26.44;59.30;101271.78;4992510;28;20406;-85
2022/07/24 08:09:13;;;;;;;;;;;;;;;26.43;59.05;101270.91;4985322;28;19959;-84
2022/07/24 08:11:39;;;;;;;;;;;;;;;26.40;59.11;101263.78;5006136;28;19926;-86
2022/07/24 08:14:04;;;;;;;;;;;;;;;26.45;59.24;101266.44;5022786;28;20303;-87
2022/07/24 08:16:30;;;;;;;;;;;;;;;26.44;59.03;101267.34;4980909;28;19913;-86
2022/07/24 08:18:58;;;;;;;;;;;;;;;26.42;58.75;101261.13;5016386;28;19944;-84
2022/07/24 08:21:24;;;;;;;;;;;;;;;26.46;58.58;101253.94;5016119;28;19921;-87
2022/07/24 08:23:56;;;;;;;;;;;;;;;26.39;59.11;101251.31;5018467;28;19917;-85
2022/07/24 08:26:21;;;;;;;;;;;;;;;26.41;58.93;101262.88;5016170;28;20345;-84
2022/07/24 08:28:47;;;;;;;;;;;;;;;26.40;58.68;101257.53;5017150;28;20475;-84
2022/07/24 08:31:13;;;;;;;;;;;;;;;26.43;58.78;101246.81;4977553;28;20307;-84
2022/07/24 08:33:38;;;;;;;;;;;;;;;26.45;58.71;101253.06;4998602;28;19914;-84
2022/07/24 08:36:04;;;;;;;;;;;;;;;26.47;58.90;101253.06;5016044;28;19913;-84
2022/07/24 08:38:29;;;;;;;;;;;;;;;26.44;58.88;101264.69;5017269;28;19948;-85
2022/07/24 08:40:55;;;;;;;;;;;;;;;26.40;58.97;101261.09;5020329;28;19913;-85
2022/07/24 08:43:21;;;;;;;;;;;;;;;26.40;58.54;101253.06;4992981;28;19917;-85
2022/07/24 08:45:46;;;;;;;;;;;;;;;26.40;58.66;101255.75;4996530;28;20371;-85
2022/07/24 08:48:11;;;;;;;;;;;;;;;26.43;58.65;101249.50;5032362;28;20291;-84
2022/07/24 08:50:38;;;;;;;;;;;;;;;26.39;58.77;101256.66;5027868;28;20019;-86
2022/07/24 08:53:04;;;;;;;;;;;;;;;26.42;58.83;101247.72;4993670;28;19939;-84
2022/07/24 08:55:30;;;;;;;;;;;;;;;26.46;58.87;101249.50;5028010;28;20365;-84
2022/07/24 08:58:01;;;;;;;;;;;;;;;26.43;58.90;101240.56;5015743;28;20410;-84
2022/07/24 09:00:28;;;;;;;;;;;;;;;26.47;58.54;101245.91;5004160;28;19923;-83
2022/07/24 09:02:54;;;;;;;;;;;;;;;26.44;59.01;101245.94;5025649;28;20369;-84
2022/07/24 09:05:19;;;;;;;;;;;;;;;26.45;59.20;101245.00;5022783;28;19952;-84
2022/07/24 09:07:45;;;;;;;;;;;;;;;26.43;58.67;101240.56;5009332;28;19913;-82
2022/07/24 09:10:11;;;;;;;;;;;;;;;26.44;58.67;101242.34;5013409;28;19960;-82
2022/07/24 09:12:41;;;;;;;;;;;;;;;26.44;58.86;101243.25;5032401;28;20355;-84
2022/07/24 09:15:15;;;;;;;;;;;;;;;26.44;58.69;101242.34;5030015;28;19913;-85
2022/07/24 09:17:51;;;;;;;;;;;;;;;26.46;58.74;101245.91;4994694;28;20021;-83
2022/07/24 09:20:17;;;;;;;;;;;;;;;26.47;58.60;101245.03;4998883;28;19913;-84
2022/07/24 09:22:43;;;;;;;;;;;;;;;26.47;58.82;101251.25;5011969;28;20013;-83
2022/07/24 09:25:11;;;;;;;;;;;;;;;26.48;58.63;101246.78;5009151;28;19914;-84
2022/07/24 09:27:38;;;;;;;;;;;;;;;26.49;58.40;101257.50;5002364;28;20000;-84
2022/07/24 09:30:05;;;;;;;;;;;;;;;26.52;58.76;101251.22;5007316;28;19917;-84
2022/07/24 09:32:30;;;;;;;;;;;;;;;26.50;58.52;101240.56;4999566;28;19913;-83
2022/07/24 09:34:56;;;;;;;;;;;;;;;26.50;58.51;101239.63;5005739;28;20325;-84
2022/07/24 09:37:21;;;;;;;;;;;;;;;26.51;58.70;101234.28;5020815;28;20076;-82
2022/07/24 09:39:47;;;;;;;;;;;;;;;26.50;59.07;101242.31;5017280;28;19925;-83
2022/07/24 09:42:12;;;;;;;;;;;;;;;26.54;59.11;101241.41;5002390;28;20474;-84
2022/07/24 09:44:38;;;;;;;;;;;;;;;26.53;58.91;101245.88;5008108;28;20313;-84
2022/07/24 09:47:08;;;;;;;;;;;;;;;26.56;58.85;101240.56;5027806;28;20288;-84
2022/07/24 09:49:34;;;;;;;;;;;;;;;26.55;58.83;101245.88;5023133;28;19913;-83
2022/07/24 09:52:10;;;;;;;;;;;;;;;26.54;58.91;101247.69;5015230;28;20284;-84
2022/07/24 09:54:36;;;;;;;;;;;;;;;26.51;59.22;101250.34;4979444;28;19913;-84
2022/07/24 09:57:14;;;;;;;;;;;;;;;26.54;59.05;101241.41;5012652;28;19944;-84
2022/07/24 09:59:40;;;;;;;;;;;;;;;26.56;58.98;101239.59;5010460;28;19920;-84
2022/07/24 10:02:06;;;;;;;;;;;;;;;26.52;59.37;101248.56;5001048;28;19921;-84
2022/07/24 10:04:31;;;;;;;;;;;;;;;26.54;59.25;101245.00;5011352;28;19960;-83
2022/07/24 10:06:57;;;;;;;;;;;;;;;26.59;59.36;101239.66;4984698;28;19933;-84
2022/07/24 10:09:22;;;;;;;;;;;;;;;26.55;59.40;101244.09;4970355;28;20475;-83
2022/07/24 10:11:47;;;;;;;;;;;;;;;26.60;59.58;101244.97;5018092;28;19925;-84
2022/07/24 10:14:16;;;;;;;;;;;;;;;26.60;58.89;101236.94;5010045;28;19913;-84
2022/07/24 10:16:42;;;;;;;;;;;;;;;26.59;59.16;101243.22;4978910;28;19917;-85
2022/07/24 10:19:08;;;;;;;;;;;;;;;26.58;59.52;101245.88;4993185;28;20509;-83
2022/07/24 10:21:34;;;;;;;;;;;;;;;26.62;59.68;101244.09;4993653;28;19922;-83
2022/07/24 10:24:11;;;;;;;;;;;;;;;26.63;59.50;101236.06;5003702;28;20671;-83
2022/07/24 10:26:43;;;;;;;;;;;;;;;26.61;59.68;101248.56;5012679;28;20449;-83
2022/07/24 10:29:13;;;;;;;;;;;;;;;26.58;60.25;101244.09;5012255;28;19997;-83
2022/07/24 10:31:43;;;;;;;;;;;;;;;26.63;59.55;101241.41;5010081;28;20390;-83
2022/07/24 10:34:29;;;;;;;;;;;;;;;26.67;60.45;101245.88;4983657;28;19996;-83
2022/07/24 10:36:57;;;;;;;;;;;;;;;26.65;59.66;101253.03;4954248;28;19921;-83
2022/07/24 10:39:28;;;;;;;;;;;;;;;26.61;59.77;101248.56;4995692;28;19972;-83
2022/07/24 10:42:04;;;;;;;;;;;;;;;26.62;60.23;101257.50;4980776;28;20412;-82
2022/07/24 10:44:30;;;;;;;;;;;;;;;26.63;59.80;101248.53;5011144;28;20375;-83
2022/07/24 10:46:56;;;;;;;;;;;;;;;26.64;59.73;101247.66;4993064;28;19928;-84
2022/07/24 10:49:41;;;;;;;;;;;;;;;26.62;59.96;101250.34;4994354;28;19913;-83
2022/07/24 10:52:08;;;;;;;;;;;;;;;26.64;60.05;101237.81;5007898;28;19914;-84
2022/07/24 10:54:33;;;;;;;;;;;;;;;26.65;59.97;101234.25;4994925;28;19913;-83
2022/07/24 10:56:59;;;;;;;;;;;;;;;26.68;59.61;101234.22;5011629;28;20450;-83
2022/07/24 10:59:37;;;;;;;;;;;;;;;26.68;60.07;101236.03;5007981;28;19936;-83
2022/07/24 11:02:25;;;;;;;;;;;;;;;26.67;59.88;101223.50;5004427;28;19918;-83
2022/07/24 11:05:10;;;;;;;;;;;;;;;26.70;60.07;101232.44;5009073;28;19952;-83
2022/07/24 11:07:35;;;;;;;;;;;;;;;26.66;59.66;101224.44;5003039;28;19943;-82
2022/07/24 11:10:07;;;;;;;;;;;;;;;26.70;59.72;101221.72;4998351;28;19922;-83
2022/07/24 11:12:33;;;;;;;;;;;;;;;26.70;60.33;101231.56;4992765;28;19920;-83
2022/07/24 11:15:53;;;;;;;;;;;;;;;26.73;60.10;101218.13;5011604;28;20020;-84
2022/07/24 11:17:45;;;;;;;;;;;;;;;26.75;59.75;101210.97;4988320;28;20385;-83
2022/07/24 11:20:11;;;;;;;;;;;;;;;26.73;59.82;101211.00;5025839;28;19918;-83
2022/07/24 11:22:47;;;;;;;;;;;;;;;26.77;59.72;101211.84;4992914;28;19922;-84
2022/07/24 11:25:15;;;;;;;;;;;;;;;26.75;59.82;101208.28;4993960;28;19918;-84
2022/07/24 11:27:42;;;;;;;;;;;;;;;26.72;60.07;101208.31;5003088;28;19918;-82
2022/07/24 11:30:09;;;;;;;;;;;;;;;26.74;60.26;101209.22;5009925;28;19928;-83
2022/07/24 11:32:37;;;;;;;;;;;;;;;26.78;59.49;101202.94;5000340;28;19913;-83
2022/07/24 11:35:04;;;;;;;;;;;;;;;26.78;59.74;101198.47;4998778;28;19924;-83
2022/07/24 11:40:35;;;;;;;;;;;;;;;26.80;59.57;101193.97;5024021;28;19928;-82
2022/07/24 11:43:03;;;;;;;;;;;;;;;26.77;59.84;101195.78;5004391;28;19923;-82
2022/07/24 11:45:28;;;;;;;;;;;;;;;26.82;59.86;101199.34;5044437;28;20097;-81
2022/07/24 11:47:54;;;;;;;;;;;;;;;26.83;59.67;101195.75;5025608;28;20015;-83
2022/07/24 11:50:23;;;;;;;;;;;;;;;26.85;60.07;101193.94;5031253;28;20014;-82
2022/07/24 11:52:49;;;;;;;;;;;;;;;26.85;59.83;101188.59;5007090;28;19972;-81
2022/07/24 11:55:16;;;;;;;;;;;;;;;26.87;60.05;101194.81;5014887;28;19917;-83
2022/07/24 11:57:46;;;;;;;;;;;;;;;26.86;59.83;101190.38;5009224;28;19940;-83
2022/07/24 12:00:13;;;;;;;;;;;;;;;26.89;59.40;101192.16;4995496;28;19947;-83
2022/07/24 12:02:45;;;;;;;;;;;;;;;26.88;59.79;101184.97;5000859;28;19921;-84
2022/07/24 12:05:11;;;;;;;;;;;;;;;26.90;59.41;101184.09;5015568;28;19921;-84
2022/07/24 12:07:36;;;;;;;;;;;;;;;26.93;59.11;101185.88;4985360;28;19974;-86
2022/07/24 12:10:02;;;;;;;;;;;;;;;26.91;59.69;101179.63;5008215;28;19918;-87
2022/07/24 12:12:31;;;;;;;;;;;;;;;26.93;59.61;101181.38;5010424;28;19945;-88
2022/07/24 12:15:11;;;;;;;;;;;;;;;26.93;59.67;101185.88;5001262;28;19914;-87
2022/07/24 12:17:55;;;;;;;;;;;;;;;26.91;59.62;101188.53;5018566;28;20387;-88
2022/07/24 12:20:21;;;;;;;;;;;;;;;26.92;60.11;101197.47;4989164;28;19925;-89
2022/07/24 12:22:47;;;;;;;;;;;;;;;26.96;60.20;101183.16;5017143;28;19929;-86
2022/07/24 12:25:14;;;;;;;;;;;;;;;26.96;59.91;101178.66;4995718;28;20372;-87
2022/07/24 12:27:40;;;;;;;;;;;;;;;26.96;59.63;101178.66;5008966;28;19913;-84
2022/07/24 12:30:17;;;;;;;;;;;;;;;26.93;59.94;101178.69;4995655;28;19980;-89
2022/07/24 12:32:55;;;;;;;;;;;;;;;26.97;59.46;101177.78;4991397;28;19968;-86
2022/07/24 12:35:22;;;;;;;;;;;;;;;26.98;60.27;101181.34;4986011;28;19957;-87